createdAt,value
2022-12-07T00:02:55.530Z,81.04
2022-12-07T00:06:01.230Z,83.94
2022-12-07T00:09:04.468Z,79.93
2022-12-07T00:12:06.570Z,79.53
2022-12-07T00:15:09.216Z,79.43
2022-12-07T00:18:11.244Z,79.69
2022-12-07T00:21:19.217Z,79.64
2022-12-07T00:24:22.099Z,79.76
2022-12-07T00:27:24.124Z,80.23
2022-12-07T00:30:27.025Z,79.29
2022-12-07T00:33:29.632Z,79.67
2022-12-07T00:36:31.728Z,79.80
2022-12-07T00:39:33.773Z,79.51
2022-12-07T00:42:35.825Z,79.95
2022-12-07T00:45:37.921Z,80.15
2022-12-07T00:48:40.217Z,79.91
2022-12-07T00:51:42.350Z,80.02
2022-12-07T00:54:44.414Z,79.25
2022-12-07T00:57:46.455Z,79.97
2022-12-07T01:00:48.646Z,80.36
2022-12-07T01:03:50.702Z,80.34
2022-12-07T01:06:52.754Z,79.82
2022-12-07T01:09:54.809Z,80.70
2022-12-07T01:12:56.842Z,80.77
2022-12-07T01:16:04.228Z,80.73
2022-12-07T01:19:06.349Z,81.60
2022-12-07T01:22:08.407Z,81.20
2022-12-07T01:25:11.519Z,81.22
2022-12-07T01:28:13.685Z,81.06
2022-12-07T01:31:21.560Z,81.36
2022-12-07T01:34:23.615Z,81.16
2022-12-07T01:37:25.665Z,81.27
2022-12-07T01:40:27.696Z,81.15
2022-12-07T01:43:31.356Z,81.85
2022-12-07T01:46:33.501Z,81.28
2022-12-07T01:49:43.016Z,81.76
2022-12-07T01:52:45.304Z,81.46
2022-12-07T01:55:49.973Z,80.88
2022-12-07T01:58:52.348Z,80.56
2022-12-07T02:01:57.544Z,80.85
2022-12-07T02:05:00.465Z,80.65
2022-12-07T02:08:02.563Z,80.72
2022-12-07T02:11:05.273Z,79.88
2022-12-07T02:14:07.346Z,80.29
2022-12-07T02:17:29.892Z,81.31
2022-12-07T02:20:40.938Z,79.83
2022-12-07T02:24:00.596Z,79.54
2022-12-07T02:27:32.778Z,79.55
2022-12-07T02:30:36.935Z,80.39
2022-12-07T02:34:03.861Z,80.06
2022-12-07T02:37:14.929Z,79.93
2022-12-07T02:40:42.971Z,80.35
2022-12-07T02:43:57.305Z,80.15
2022-12-07T02:47:10.763Z,80.38
2022-12-07T02:50:13.034Z,80.17
2022-12-07T02:53:41.977Z,80.68
2022-12-07T02:56:53.079Z,80.51
2022-12-07T03:00:16.732Z,80.39
2022-12-07T03:03:18.901Z,81.13
2022-12-07T03:06:37.931Z,80.83
2022-12-07T03:10:03.643Z,80.67
2022-12-07T03:13:21.028Z,80.56
2022-12-07T03:16:39.030Z,81.02
2022-12-07T03:19:41.313Z,81.54
2022-12-07T03:22:43.545Z,81.64
2022-12-07T03:25:49.061Z,80.84
2022-12-07T03:28:56.949Z,80.28
2022-12-07T03:32:30.630Z,80.03
2022-12-07T03:35:38.297Z,80.57
2022-12-07T03:38:46.354Z,80.01
2022-12-07T03:41:48.475Z,79.71
2022-12-07T03:44:50.533Z,79.44
2022-12-07T03:48:21.031Z,79.11
2022-12-07T03:51:37.933Z,78.95
2022-12-07T03:54:55.845Z,78.53
2022-12-07T03:58:19.728Z,78.94
2022-12-07T04:01:22.136Z,78.43
2022-12-07T04:04:24.922Z,78.46
2022-12-07T04:07:27.002Z,78.17
2022-12-07T04:10:29.325Z,78.46
2022-12-07T04:13:51.306Z,78.68
2022-12-07T04:16:58.276Z,78.00
2022-12-07T04:20:00.887Z,78.07
2022-12-07T04:23:03.230Z,78.41
2022-12-07T04:26:05.530Z,78.03
2022-12-07T04:29:08.286Z,78.60
2022-12-07T04:32:10.434Z,77.94
2022-12-07T04:35:12.511Z,77.87
2022-12-07T04:38:14.596Z,77.79
2022-12-07T04:41:16.787Z,77.22
2022-12-07T04:44:19.472Z,78.01
2022-12-07T04:47:21.764Z,78.31
2022-12-07T04:50:23.914Z,77.45
2022-12-07T04:53:26.070Z,77.53
2022-12-07T04:56:28.187Z,77.12
2022-12-07T04:59:30.288Z,77.67
2022-12-07T05:02:32.409Z,76.46
2022-12-07T05:05:34.706Z,77.17
2022-12-07T05:08:36.900Z,75.63
2022-12-07T05:11:39.186Z,76.49
2022-12-07T05:14:41.252Z,76.08
2022-12-07T05:17:43.394Z,77.04
2022-12-07T05:20:45.744Z,77.32
2022-12-07T05:23:47.848Z,76.67
2022-12-07T05:26:49.964Z,76.24
2022-12-07T05:29:52.652Z,76.61
2022-12-07T05:32:54.757Z,77.00
2022-12-07T05:35:56.940Z,77.38
2022-12-07T05:38:59.457Z,76.28
2022-12-07T05:42:13.438Z,76.45
2022-12-07T05:45:15.613Z,77.29
2022-12-07T05:48:17.673Z,76.97
2022-12-07T05:51:19.855Z,77.42
2022-12-07T05:54:21.978Z,77.85
2022-12-07T05:57:24.021Z,77.69
2022-12-07T06:00:26.177Z,77.75
2022-12-07T06:03:28.439Z,77.67
2022-12-07T06:06:30.657Z,77.85
2022-12-07T06:09:33.081Z,77.03
2022-12-07T06:12:35.570Z,77.08
2022-12-07T06:15:37.986Z,77.49
2022-12-07T06:18:40.172Z,77.80
2022-12-07T06:21:42.352Z,78.14
2022-12-07T06:24:44.657Z,77.65
2022-12-07T06:27:46.719Z,77.40
2022-12-07T06:31:00.724Z,78.31
2022-12-07T06:34:05.060Z,77.69
2022-12-07T06:37:07.264Z,77.70
2022-12-07T06:40:10.213Z,78.42
2022-12-07T06:43:12.441Z,78.56
2022-12-07T06:46:15.535Z,78.81
2022-12-07T06:49:17.737Z,78.70
2022-12-07T06:52:19.858Z,78.84
2022-12-07T06:55:21.937Z,78.74
2022-12-07T06:58:24.081Z,78.97
2022-12-07T07:01:26.265Z,79.06
2022-12-07T07:04:28.395Z,78.87
2022-12-07T07:07:30.481Z,79.15
2022-12-07T07:10:32.597Z,78.96
2022-12-07T07:13:34.758Z,79.13
2022-12-07T07:16:36.856Z,78.88
2022-12-07T07:19:38.938Z,79.57
2022-12-07T07:22:41.158Z,79.74
2022-12-07T07:25:43.214Z,79.84
2022-12-07T07:28:45.257Z,79.31
2022-12-07T07:31:47.301Z,79.26
2022-12-07T07:34:49.726Z,78.94
2022-12-07T07:37:51.985Z,78.78
2022-12-07T07:40:56.382Z,78.37
2022-12-07T07:43:58.468Z,78.65
2022-12-07T07:47:00.608Z,78.21
2022-12-07T07:50:08.635Z,78.24
2022-12-07T07:53:10.926Z,78.77
2022-12-07T07:56:13.242Z,78.35
2022-12-07T07:59:16.592Z,78.58
2022-12-07T08:02:24.132Z,78.76
2022-12-07T08:05:26.434Z,78.30
2022-12-07T08:08:28.631Z,78.39
2022-12-07T08:11:37.486Z,78.72
2022-12-07T08:14:39.676Z,78.55
2022-12-07T08:17:41.766Z,77.87
2022-12-07T08:20:44.052Z,78.41
2022-12-07T08:23:46.161Z,78.69
2022-12-07T08:26:48.311Z,78.13
2022-12-07T08:29:50.536Z,77.88
2022-12-07T08:32:52.614Z,78.11
2022-12-07T08:35:55.593Z,78.03
2022-12-07T08:39:30.013Z,77.70
2022-12-07T08:42:19.692Z,77.92
2022-12-07T08:45:27.019Z,77.11
2022-12-07T08:48:29.647Z,76.65
2022-12-07T08:51:31.794Z,77.50
2022-12-07T08:54:35.420Z,75.67
2022-12-07T08:57:37.853Z,76.61
2022-12-07T09:00:39.936Z,76.57
2022-12-07T09:03:42.005Z,76.87
2022-12-07T09:06:44.198Z,75.87
2022-12-07T09:09:46.331Z,75.70
2022-12-07T09:12:48.408Z,75.87
2022-12-07T09:15:50.548Z,76.43
2022-12-07T09:18:52.690Z,75.69
2022-12-07T09:21:54.821Z,75.21
2022-12-07T09:25:00.172Z,75.07
2022-12-07T09:28:02.286Z,75.14
2022-12-07T09:34:27.619Z,75.79
2022-12-07T09:37:29.817Z,75.01
2022-12-07T09:40:31.919Z,75.56
2022-12-07T09:43:34.625Z,75.01
2022-12-07T09:46:39.696Z,74.55
2022-12-07T09:49:42.024Z,74.74
2022-12-07T09:52:45.524Z,74.33
2022-12-07T09:55:47.630Z,73.14
2022-12-07T09:58:49.853Z,73.30
2022-12-07T10:01:52.061Z,72.95
2022-12-07T10:04:54.328Z,73.17
2022-12-07T10:07:56.946Z,73.62
2022-12-07T10:10:59.178Z,73.87
2022-12-07T10:14:13.525Z,73.81
2022-12-07T10:17:44.300Z,74.13
2022-12-07T10:20:49.650Z,74.76
2022-12-07T10:24:04.548Z,74.01
2022-12-07T10:27:22.999Z,71.62
2022-12-07T10:30:25.174Z,73.37
2022-12-07T10:33:51.143Z,74.22
2022-12-07T10:36:54.275Z,74.02
2022-12-07T10:39:57.806Z,74.18
2022-12-07T10:43:14.789Z,73.48
2022-12-07T10:46:41.193Z,71.49
2022-12-07T10:50:11.500Z,72.17
2022-12-07T10:53:50.563Z,70.70
2022-12-07T10:57:36.285Z,72.94
2022-12-07T11:00:54.855Z,73.02
2022-12-07T11:04:16.098Z,73.61
2022-12-07T11:07:44.195Z,74.30
2022-12-07T11:11:14.372Z,73.79
2022-12-07T11:14:52.617Z,72.31
2022-12-07T11:18:28.980Z,73.36
2022-12-07T11:21:36.726Z,73.35
2022-12-07T11:25:17.714Z,73.51
2022-12-07T11:28:48.307Z,69.71
2022-12-07T11:32:16.927Z,66.51
2022-12-07T11:36:08.846Z,67.88
2022-12-07T11:39:24.220Z,69.20
2022-12-07T11:42:28.887Z,68.00
2022-12-07T11:45:34.708Z,70.89
2022-12-07T11:48:46.515Z,69.11
2022-12-07T11:51:50.404Z,67.98
2022-12-07T11:54:53.927Z,66.66
2022-12-07T11:58:34.318Z,68.71
2022-12-07T12:01:39.405Z,67.44
2022-12-07T12:04:59.397Z,62.65
2022-12-07T12:16:41.669Z,64.93
2022-12-07T12:20:07.012Z,68.86
2022-12-07T12:23:22.276Z,69.97
2022-12-07T12:26:26.999Z,69.53
2022-12-07T12:29:42.025Z,67.48
2022-12-07T12:32:44.789Z,62.32
2022-12-07T12:35:46.861Z,61.90
2022-12-07T12:38:53.127Z,60.57
2022-12-07T12:42:00.412Z,59.70
2022-12-07T12:45:25.766Z,66.78
2022-12-07T12:48:34.457Z,68.26
2022-12-07T12:51:41.198Z,68.27
2022-12-07T12:55:13.380Z,69.33
2022-12-07T12:58:37.748Z,69.24
2022-12-07T13:01:45.068Z,65.43
2022-12-07T13:05:08.997Z,61.22
2022-12-07T13:08:20.341Z,63.00
2022-12-07T13:11:37.889Z,60.18
2022-12-07T13:15:04.085Z,59.40
2022-12-07T13:18:09.055Z,58.67
2022-12-07T13:21:11.005Z,58.27
2022-12-07T13:24:13.795Z,58.12
2022-12-07T13:27:15.847Z,58.62
2022-12-07T13:30:20.737Z,57.98
2022-12-07T13:33:22.792Z,58.68
2022-12-07T13:36:36.352Z,60.07
2022-12-07T13:39:49.780Z,56.72
2022-12-07T13:43:03.099Z,73.67
2022-12-07T13:46:05.851Z,68.26
2022-12-07T13:49:22.656Z,66.21
2022-12-07T13:52:33.943Z,64.73
2022-12-07T13:55:36.183Z,63.41
2022-12-07T13:58:38.228Z,63.08
2022-12-07T14:01:40.361Z,62.97
2022-12-07T14:04:42.726Z,53.42
2022-12-07T14:08:02.538Z,60.02
2022-12-07T14:11:04.930Z,61.42
2022-12-07T14:14:07.053Z,52.16
2022-12-07T14:17:25.977Z,56.66
2022-12-07T14:20:35.531Z,57.59
2022-12-07T14:23:39.077Z,57.78
2022-12-07T14:26:41.691Z,58.18
2022-12-07T14:29:44.176Z,57.93
2022-12-07T14:32:53.120Z,57.32
2022-12-07T14:35:59.173Z,57.31
2022-12-07T14:39:01.501Z,57.14
2022-12-07T14:42:03.561Z,57.36
2022-12-07T14:45:07.113Z,57.03
2022-12-07T14:54:57.387Z,56.73
2022-12-07T14:57:59.864Z,56.07
2022-12-07T15:01:01.934Z,55.93
2022-12-07T15:04:04.161Z,55.96
2022-12-07T15:07:10.928Z,55.60
2022-12-07T15:10:24.134Z,54.49
2022-12-07T15:13:45.225Z,55.49
2022-12-07T15:17:07.998Z,55.19
2022-12-07T15:20:13.761Z,54.67
2022-12-07T15:23:16.361Z,55.32
2022-12-07T15:26:18.550Z,56.05
2022-12-07T15:29:23.101Z,54.82
2022-12-07T15:32:26.030Z,55.69
2022-12-07T15:35:28.090Z,55.76
2022-12-07T15:38:56.310Z,55.29
2022-12-07T15:41:53.561Z,55.22
2022-12-07T15:45:05.350Z,55.34
2022-12-07T15:51:29.919Z,55.40
2022-12-07T15:54:33.338Z,55.38
2022-12-07T15:57:37.960Z,55.54
2022-12-07T16:00:40.031Z,56.25
2022-12-07T16:03:42.475Z,55.37
2022-12-07T16:06:45.362Z,55.67
2022-12-07T16:09:47.522Z,55.87
2022-12-07T16:12:49.573Z,56.20
2022-12-07T16:15:51.614Z,55.64
2022-12-07T16:18:53.688Z,55.98
2022-12-07T16:21:55.791Z,56.04
2022-12-07T16:24:57.835Z,55.80
2022-12-07T16:27:59.930Z,56.57
2022-12-07T16:31:14.247Z,55.90
2022-12-07T16:34:16.640Z,56.71
2022-12-07T16:37:18.679Z,56.41
2022-12-07T16:40:20.765Z,56.83
2022-12-07T16:43:23.134Z,56.81
2022-12-07T16:46:25.320Z,56.63
2022-12-07T16:49:27.915Z,57.16
2022-12-07T16:52:29.948Z,57.23
2022-12-07T16:55:32.153Z,57.73
2022-12-07T16:58:34.182Z,57.55
2022-12-07T17:01:36.930Z,57.44
2022-12-07T17:04:43.301Z,57.80
2022-12-07T17:07:45.431Z,57.68
2022-12-07T17:10:47.605Z,58.08
2022-12-07T17:14:08.669Z,58.46
2022-12-07T17:17:10.706Z,57.56
2022-12-07T17:20:13.121Z,58.16
2022-12-07T17:23:15.160Z,58.54
2022-12-07T17:26:21.521Z,58.52
2022-12-07T17:29:23.561Z,58.49
2022-12-07T17:32:25.609Z,58.85
2022-12-07T17:35:28.613Z,58.88
2022-12-07T17:38:30.681Z,59.30
2022-12-07T17:41:51.690Z,59.12
2022-12-07T17:44:53.872Z,59.20
2022-12-07T17:47:56.051Z,59.20
2022-12-07T17:51:19.739Z,58.17
2022-12-07T17:54:21.842Z,58.54
2022-12-07T17:57:23.936Z,58.79
2022-12-07T18:00:26.117Z,58.99
2022-12-07T18:03:28.217Z,59.13
2022-12-07T18:06:30.536Z,59.14
2022-12-07T18:09:32.748Z,59.43
2022-12-07T18:12:35.080Z,59.52
2022-12-07T18:15:37.119Z,59.37
2022-12-07T18:18:39.423Z,59.74
2022-12-07T18:21:43.017Z,59.78
2022-12-07T18:24:45.114Z,59.80
2022-12-07T18:27:47.194Z,60.10
2022-12-07T18:31:14.326Z,60.25
2022-12-07T18:34:15.794Z,60.13
2022-12-07T18:37:17.966Z,60.45
2022-12-07T18:40:20.018Z,60.32
2022-12-07T18:43:22.166Z,60.50
2022-12-07T18:46:24.255Z,60.40
2022-12-07T18:49:26.523Z,60.55
2022-12-07T18:52:28.613Z,60.55
2022-12-07T18:55:33.510Z,60.67
2022-12-07T18:58:35.703Z,60.78
2022-12-07T19:01:37.969Z,60.46
2022-12-07T19:04:40.092Z,60.69
2022-12-07T19:07:42.273Z,60.95
2022-12-07T19:10:44.402Z,61.24
2022-12-07T19:13:46.473Z,61.10
2022-12-07T19:16:50.112Z,60.78
2022-12-07T19:19:52.249Z,60.76
2022-12-07T19:22:54.369Z,60.94
2022-12-07T19:25:56.584Z,60.91
2022-12-07T19:28:58.655Z,61.11
2022-12-07T19:32:01.443Z,61.33
2022-12-07T19:35:04.936Z,61.23
2022-12-07T19:38:07.204Z,61.19
2022-12-07T19:41:33.565Z,61.38
2022-12-07T19:44:35.708Z,61.24
2022-12-07T19:47:37.767Z,61.30
2022-12-07T19:50:39.910Z,61.31
2022-12-07T19:53:41.946Z,61.44
2022-12-07T19:56:44.326Z,61.50
2022-12-07T19:59:46.772Z,61.35
2022-12-07T20:02:52.158Z,61.49
2022-12-07T20:05:54.233Z,61.53
2022-12-07T20:08:56.421Z,61.79
2022-12-07T20:12:17.116Z,61.60
2022-12-07T20:15:19.224Z,61.69
2022-12-07T20:18:21.562Z,61.51
2022-12-07T20:21:24.176Z,61.77
2022-12-07T20:24:26.394Z,61.75
2022-12-07T20:27:28.642Z,61.83
2022-12-07T20:30:30.841Z,62.03
2022-12-07T20:33:33.048Z,61.93
2022-12-07T20:36:35.186Z,61.99
2022-12-07T20:39:37.322Z,61.91
2022-12-07T20:42:39.480Z,61.86
2022-12-07T20:45:48.419Z,62.01
2022-12-07T20:48:50.781Z,61.86
2022-12-07T20:51:52.997Z,61.87
2022-12-07T20:54:55.073Z,61.90
2022-12-07T20:57:57.152Z,61.70
2022-12-07T21:01:03.010Z,61.77
2022-12-07T21:04:05.334Z,61.99
2022-12-07T21:07:07.422Z,62.09
2022-12-07T21:10:10.036Z,61.99
2022-12-07T21:13:12.099Z,61.78
2022-12-07T21:16:19.634Z,61.82
2022-12-07T21:19:21.812Z,61.93
2022-12-07T21:22:23.895Z,61.67
2022-12-07T21:25:25.967Z,61.58
2022-12-07T21:28:28.142Z,61.68
2022-12-07T21:31:30.410Z,61.52
2022-12-07T21:34:32.685Z,61.43
2022-12-07T21:37:34.854Z,61.40
2022-12-07T21:40:37.214Z,61.30
2022-12-07T21:43:39.935Z,62.37
2022-12-07T21:46:42.128Z,62.45
2022-12-07T21:49:44.232Z,62.81
2022-12-07T21:52:46.397Z,63.10
2022-12-07T21:55:48.475Z,63.13
2022-12-07T21:58:51.384Z,63.05
2022-12-07T22:01:53.552Z,63.01
2022-12-07T22:04:55.933Z,63.23
2022-12-07T22:07:58.053Z,63.39
2022-12-07T22:11:03.000Z,63.59
2022-12-07T22:14:24.060Z,63.56
2022-12-07T22:17:28.076Z,63.76
2022-12-07T22:20:30.120Z,63.91
2022-12-07T22:23:32.949Z,63.83
2022-12-07T22:26:35.096Z,63.89
2022-12-07T22:29:37.135Z,64.20
2022-12-07T22:32:48.377Z,64.21
2022-12-07T22:35:54.036Z,64.29
2022-12-07T22:38:56.389Z,64.00
2022-12-07T22:41:58.457Z,64.14
2022-12-07T22:45:00.668Z,64.38
2022-12-07T22:48:02.885Z,64.21
2022-12-07T22:51:04.940Z,64.33
2022-12-07T22:54:12.681Z,64.74
2022-12-07T22:57:14.716Z,49.00
2022-12-07T23:00:17.045Z,52.81
2022-12-07T23:03:19.292Z,55.05
2022-12-07T23:06:27.495Z,56.22
2022-12-07T23:09:29.546Z,55.93
2022-12-07T23:12:50.049Z,56.88
2022-12-07T23:15:52.129Z,56.59
2022-12-07T23:18:54.294Z,64.40
2022-12-07T23:21:56.352Z,65.31
2022-12-07T23:24:58.446Z,65.71
2022-12-07T23:28:00.513Z,65.75
2022-12-07T23:31:07.271Z,65.50
2022-12-07T23:34:10.300Z,65.50
2022-12-07T23:37:12.337Z,65.42
2022-12-07T23:40:14.391Z,65.28
2022-12-07T23:43:16.463Z,65.08
2022-12-07T23:46:20.398Z,64.97
2022-12-07T23:49:22.507Z,64.83
2022-12-07T23:52:24.578Z,64.42
2022-12-07T23:55:26.648Z,64.39
2022-12-07T23:58:28.686Z,64.20
